Terminal Aerodrome Forecast
Issued by NWS Melbourne, FL

Home | Current Version | Previous Version | Text Only | Print | Product List | Glossary On
Versions: 1 2 3 4 5 6 7 8 9 10 11 12 13 14 15 16 17 18 19
000
FTUS42 KMLB 061548 AAC
TAFMLB
TAF AMD
KMLB 061548Z 0616/0712 01010KT P6SM BKN006 OVC010
      TEMPO 0616/0618 3SM BR
     FM070000 35016G23KT P6SM OVC006=

USA.gov is the U.S. government's official web portal to all federal, state and local government web resources and services.